createdAt,value
2022-12-26T00:25:38.981Z,5.80
2022-12-26T00:43:55.677Z,6.10
2022-12-26T00:56:19.259Z,5.73
2022-12-26T01:08:21.725Z,5.87
2022-12-26T01:26:33.337Z,5.70
2022-12-26T01:32:19.682Z,6.37
2022-12-26T01:51:16.904Z,6.10
2022-12-26T01:56:35.967Z,5.80
2022-12-26T02:02:25.199Z,5.90
2022-12-26T02:08:22.942Z,6.40
2022-12-26T02:13:58.508Z,6.10
2022-12-26T02:37:50.140Z,5.20
2022-12-26T02:43:16.949Z,5.50
2022-12-26T02:48:58.950Z,5.60
2022-12-26T02:54:37.805Z,6.07
2022-12-26T03:00:29.220Z,5.67
2022-12-26T03:06:54.300Z,5.53
2022-12-26T03:13:38.887Z,5.00
2022-12-26T03:19:32.414Z,5.57
2022-12-26T03:31:29.801Z,5.03
2022-12-26T03:43:31.480Z,4.77
2022-12-26T03:49:23.410Z,4.27
2022-12-26T03:55:18.705Z,4.23
2022-12-26T04:01:04.538Z,4.70
2022-12-26T04:13:12.371Z,4.20
2022-12-26T04:18:52.730Z,4.30
2022-12-26T04:24:48.945Z,4.30
2022-12-26T04:37:12.484Z,4.00
2022-12-26T04:42:47.243Z,4.17
2022-12-26T04:54:50.795Z,5.00
2022-12-26T05:00:26.628Z,4.90
2022-12-26T05:12:27.566Z,5.63
2022-12-26T05:17:47.792Z,4.70
2022-12-26T05:23:11.040Z,4.77
2022-12-26T05:28:32.621Z,4.10
2022-12-26T05:33:52.945Z,4.30
2022-12-26T05:38:57.095Z,4.67
2022-12-26T05:43:59.932Z,3.67
2022-12-26T05:49:02.780Z,2.67
2022-12-26T05:54:06.983Z,1.80
2022-12-26T05:59:10.735Z,1.63
2022-12-26T06:04:13.550Z,1.60
2022-12-26T06:09:17.571Z,1.47
2022-12-26T06:14:20.241Z,1.60
2022-12-26T06:19:23.334Z,1.52
2022-12-26T06:24:27.319Z,1.50
2022-12-26T06:29:30.029Z,1.60
2022-12-26T06:34:33.034Z,1.47
2022-12-26T06:39:37.096Z,1.70
2022-12-26T06:44:39.764Z,1.90
2022-12-26T06:49:42.409Z,1.97
2022-12-26T06:54:46.400Z,1.77
2022-12-26T06:59:49.073Z,1.70
2022-12-26T07:04:51.726Z,1.67
2022-12-26T07:09:55.741Z,1.60
2022-12-26T07:15:01.698Z,1.92
2022-12-26T07:20:05.172Z,1.53
2022-12-26T07:25:10.283Z,1.60
2022-12-26T07:30:13.517Z,2.15
2022-12-26T07:35:16.264Z,1.88
2022-12-26T07:40:20.293Z,5.13
2022-12-26T07:45:22.958Z,2.20
2022-12-26T07:50:27.071Z,1.90
2022-12-26T07:55:31.161Z,2.03
2022-12-26T08:00:34.145Z,1.88
2022-12-26T08:05:36.865Z,2.58
2022-12-26T08:10:41.210Z,2.80
2022-12-26T08:15:43.845Z,2.20
2022-12-26T08:20:46.474Z,1.98
2022-12-26T08:25:50.481Z,2.40
2022-12-26T08:30:53.197Z,2.50
2022-12-26T08:35:55.905Z,2.60
2022-12-26T08:41:00.364Z,2.57
2022-12-26T08:46:06.534Z,1.88
2022-12-26T08:51:12.012Z,1.88
2022-12-26T08:56:19.104Z,1.50
2022-12-26T09:01:23.472Z,1.55
2022-12-26T09:06:26.825Z,1.40
2022-12-26T09:11:30.991Z,1.60
2022-12-26T09:16:40.039Z,1.60
2022-12-26T09:21:44.963Z,1.30
2022-12-26T09:26:48.951Z,1.50
2022-12-26T09:31:51.602Z,1.50
2022-12-26T09:36:54.280Z,1.35
2022-12-26T09:42:08.213Z,1.50
2022-12-26T09:47:28.987Z,1.60
2022-12-26T09:52:38.854Z,1.70
2022-12-26T09:57:48.137Z,1.40
2022-12-26T10:02:55.265Z,1.80
2022-12-26T10:08:07.836Z,1.65
2022-12-26T10:13:22.399Z,1.77
2022-12-26T10:18:37.697Z,1.50
2022-12-26T10:23:41.832Z,1.50
2022-12-26T10:28:50.535Z,2.55
2022-12-26T10:33:57.572Z,1.83
2022-12-26T10:39:02.068Z,1.40
2022-12-26T10:44:06.125Z,1.73
2022-12-26T10:49:11.613Z,1.80
2022-12-26T10:54:17.797Z,1.40
2022-12-26T10:59:24.870Z,1.35
2022-12-26T11:09:55.853Z,1.20
2022-12-26T11:15:02.936Z,1.60
2022-12-26T11:20:30.873Z,1.60
2022-12-26T11:25:38.811Z,1.30
2022-12-26T11:30:48.957Z,1.33
2022-12-26T11:35:55.379Z,1.77
2022-12-26T11:41:13.228Z,1.10
2022-12-26T11:46:18.058Z,1.25
2022-12-26T11:51:39.520Z,1.17
2022-12-26T11:56:42.192Z,1.10
2022-12-26T12:01:46.356Z,1.25
2022-12-26T12:07:00.854Z,1.45
2022-12-26T12:12:14.405Z,1.20
2022-12-26T12:17:26.357Z,1.20
2022-12-26T12:23:06.796Z,1.10
2022-12-26T12:28:32.870Z,1.30
2022-12-26T12:33:46.063Z,1.02
2022-12-26T12:39:02.857Z,1.02
2022-12-26T12:44:08.141Z,1.40
2022-12-26T12:49:31.231Z,1.10
2022-12-26T12:55:06.876Z,1.42
2022-12-26T13:00:17.042Z,1.35
2022-12-26T13:05:30.178Z,1.40
2022-12-26T13:10:35.612Z,1.35
2022-12-26T13:20:56.844Z,0.80
2022-12-26T13:26:08.015Z,1.00
2022-12-26T13:31:10.755Z,1.00
2022-12-26T13:36:35.158Z,1.33
2022-12-26T13:41:55.379Z,0.80
2022-12-26T13:46:59.718Z,0.80
2022-12-26T13:52:39.943Z,1.10
2022-12-26T13:57:44.901Z,0.80
2022-12-26T14:03:29.314Z,0.90
2022-12-26T14:08:42.006Z,0.90
2022-12-26T14:13:57.574Z,1.07
2022-12-26T14:19:07.907Z,1.60
2022-12-26T14:24:26.865Z,0.90
2022-12-26T14:29:35.585Z,1.20
2022-12-26T14:34:51.914Z,1.40
2022-12-26T14:40:07.771Z,1.00
2022-12-26T14:45:29.752Z,1.03
2022-12-26T14:50:42.137Z,1.00
2022-12-26T14:55:50.982Z,1.50
2022-12-26T15:00:54.758Z,1.80
2022-12-26T15:06:25.590Z,1.53
2022-12-26T15:11:54.745Z,1.23
2022-12-26T15:17:08.026Z,1.20
2022-12-26T15:22:41.985Z,1.43
2022-12-26T15:28:34.348Z,2.43
2022-12-26T15:33:41.668Z,1.67
2022-12-26T15:38:49.990Z,1.60
2022-12-26T15:44:08.330Z,1.57
2022-12-26T15:49:30.165Z,1.97
2022-12-26T15:55:01.661Z,1.97
2022-12-26T16:00:19.156Z,1.43
2022-12-26T16:05:41.404Z,2.50
2022-12-26T16:10:44.528Z,2.30
2022-12-26T16:15:50.740Z,1.90
2022-12-26T16:21:14.026Z,1.73
2022-12-26T16:26:20.284Z,1.80
2022-12-26T16:31:26.359Z,1.83
2022-12-26T16:36:32.787Z,1.90
2022-12-26T16:41:40.945Z,2.10
2022-12-26T16:46:54.860Z,2.27
2022-12-26T16:51:57.940Z,2.40
2022-12-26T16:57:08.849Z,2.10
2022-12-26T17:02:20.433Z,1.73
2022-12-26T17:07:26.991Z,1.60
2022-12-26T17:12:34.369Z,1.63
2022-12-26T17:17:39.591Z,1.80
2022-12-26T17:22:42.585Z,2.00
2022-12-26T17:27:46.016Z,1.70
2022-12-26T17:32:50.215Z,1.80
2022-12-26T17:37:57.682Z,1.90
2022-12-26T17:43:06.958Z,1.70
2022-12-26T17:48:13.234Z,1.80
2022-12-26T17:53:26.463Z,1.90
2022-12-26T17:58:29.593Z,2.10
2022-12-26T18:03:33.588Z,1.93
2022-12-26T18:08:38.260Z,2.03
2022-12-26T18:13:41.721Z,2.03
2022-12-26T18:18:47.934Z,1.70
2022-12-26T18:23:50.579Z,2.37
2022-12-26T18:28:53.939Z,3.37
2022-12-26T18:33:58.243Z,1.70
2022-12-26T18:39:01.272Z,2.00
2022-12-26T18:44:04.572Z,1.50
2022-12-26T18:49:10.077Z,1.50
2022-12-26T18:54:12.764Z,1.00
2022-12-26T18:59:15.429Z,1.20
2022-12-26T19:04:20.492Z,1.10
2022-12-26T19:09:24.665Z,1.00
2022-12-26T19:14:27.307Z,4.43
2022-12-26T19:19:31.656Z,0.80
2022-12-26T19:24:34.956Z,0.80
2022-12-26T19:29:37.596Z,1.00
2022-12-26T19:34:41.580Z,0.90
2022-12-26T19:39:44.209Z,0.80
2022-12-26T19:44:47.960Z,0.70
2022-12-26T19:49:51.947Z,0.70
2022-12-26T19:54:54.611Z,0.70
2022-12-26T19:59:57.479Z,1.10
2022-12-26T20:05:01.454Z,0.60
2022-12-26T20:10:04.853Z,1.17
2022-12-26T20:15:08.589Z,0.70
2022-12-26T20:20:12.758Z,0.80
2022-12-26T20:25:15.415Z,0.80
2022-12-26T20:30:18.163Z,0.80
2022-12-26T20:35:22.153Z,0.90
2022-12-26T20:40:25.547Z,0.90
2022-12-26T20:45:28.325Z,0.90
2022-12-26T21:35:03.833Z,1.63
2022-12-26T21:47:00.912Z,1.87
2022-12-26T21:52:04.083Z,1.60
2022-12-26T21:57:06.741Z,1.50
2022-12-26T22:02:34.910Z,1.97
2022-12-26T22:07:37.665Z,1.83
2022-12-26T22:12:58.666Z,1.67
2022-12-26T22:18:02.712Z,1.70
2022-12-26T22:23:05.657Z,1.77
2022-12-26T22:28:08.290Z,1.70
2022-12-26T22:33:12.300Z,1.40
2022-12-26T22:38:15.507Z,1.97
2022-12-26T22:43:18.167Z,1.50
2022-12-26T22:48:23.023Z,1.77
2022-12-26T22:53:27.260Z,2.00
2022-12-26T22:58:31.400Z,1.80
2022-12-26T23:03:35.412Z,1.77
2022-12-26T23:08:38.745Z,1.67
2022-12-26T23:13:42.039Z,2.33
2022-12-26T23:19:10.300Z,2.00
2022-12-26T23:24:16.567Z,2.07
2022-12-26T23:29:39.354Z,1.83
2022-12-26T23:34:43.331Z,1.60
2022-12-26T23:39:46.102Z,2.00
2022-12-26T23:44:48.808Z,1.97
2022-12-26T23:49:52.816Z,1.60
2022-12-26T23:54:55.488Z,1.47
2022-12-26T23:59:58.158Z,1.40
